Time;durP1;ratioP1;P1;durP2;ratioP2;P2;SDS_P1;SDS_P2;PMS_P1;PMS_P2;Temp;Humidity;BMP_temperature;BMP_pressure;BME280_temperature;BME280_humidity;BME280_pressure;Samples;Min_cycle;Max_cycle;Signal;HPM_P1;HPM_P2
2023/11/19 00:00:25;;;;;;;21.08;11.77;;;1.20;99.90;;;;;;5071655;28;19908;-75
2023/11/19 00:02:51;;;;;;;30.30;13.50;;;1.20;99.90;;;;;;5071442;28;20040;-75
2023/11/19 00:05:17;;;;;;;;;;;1.00;99.90;;;;;;5070426;28;20039;-76
2023/11/19 00:07:43;;;;;;;13.95;6.82;;;1.00;99.90;;;;;;5071256;28;19908;-76
2023/11/19 00:10:12;;;;;;;;;;;1.10;99.90;;;;;;5071859;28;20027;-75
2023/11/19 00:12:48;;;;;;;15.52;8.15;;;1.20;99.90;;;;;;5071712;28;19908;-75
2023/11/19 00:15:15;;;;;;;10.73;6.30;;;1.30;99.90;;;;;;5072161;28;20078;-76
2023/11/19 00:17:44;;;;;;;13.88;8.00;;;1.20;99.90;;;;;;5072417;28;20086;-75
2023/11/19 00:20:14;;;;;;;15.93;8.50;;;1.10;99.90;;;;;;5070015;28;20024;-76
2023/11/19 00:22:42;;;;;;;14.40;7.90;;;1.10;99.90;;;;;;5070534;28;20024;-75
2023/11/19 00:25:11;;;;;;;12.07;5.93;;;1.20;99.90;;;;;;5070690;28;20135;-74
2023/11/19 00:27:39;;;;;;;12.05;6.70;;;1.20;99.90;;;;;;5070766;28;20035;-75
2023/11/19 00:30:06;;;;;;;13.65;7.55;;;1.20;99.90;;;;;;5070673;28;20451;-75
2023/11/19 00:32:36;;;;;;;53.40;22.98;;;1.10;99.90;;;;;;5070773;28;20033;-75
2023/11/19 00:35:02;;;;;;;16.25;8.55;;;1.20;99.90;;;;;;5069203;28;20030;-74
2023/11/19 00:37:28;;;;;;;19.23;8.98;;;1.20;99.90;;;;;;5070293;28;20048;-75
2023/11/19 00:39:56;;;;;;;;;;;1.20;99.90;;;;;;5069718;28;20028;-75
2023/11/19 00:42:22;;;;;;;17.55;7.40;;;1.20;99.90;;;;;;5069243;28;19911;-75
2023/11/19 00:44:47;;;;;;;;;;;1.20;99.90;;;;;;5069896;28;20040;-75
2023/11/19 00:47:13;;;;;;;10.27;5.32;;;1.20;99.90;;;;;;5070189;28;20373;-75
2023/11/19 00:49:39;;;;;;;;;;;1.10;99.90;;;;;;5069381;28;20024;-75
2023/11/19 00:52:06;;;;;;;14.95;7.20;;;1.10;99.90;;;;;;5070433;28;19904;-75
2023/11/19 00:54:32;;;;;;;16.10;7.07;;;1.10;99.90;;;;;;5068851;28;20087;-75
2023/11/19 00:56:57;;;;;;;;;;;1.00;99.90;;;;;;5069342;28;20033;-75
2023/11/19 00:59:23;;;;;;;14.68;6.85;;;1.00;99.90;;;;;;5069861;28;19915;-75
2023/11/19 01:01:48;;;;;;;;;;;1.10;99.90;;;;;;5069144;28;20124;-75
2023/11/19 01:04:14;;;;;;;11.45;5.45;;;1.10;99.90;;;;;;5068596;28;20003;-75
2023/11/19 01:06:40;;;;;;;;;;;1.00;99.90;;;;;;5070112;28;20557;-75
2023/11/19 01:09:06;;;;;;;7.45;4.55;;;1.10;99.90;;;;;;5068995;28;19912;-75
2023/11/19 01:11:31;;;;;;;;;;;1.10;99.90;;;;;;5069238;28;20046;-76
2023/11/19 01:13:57;;;;;;;9.60;4.43;;;1.30;99.90;;;;;;5068683;28;19954;-74
2023/11/19 01:16:22;;;;;;;;;;;1.20;99.90;;;;;;5070342;28;20039;-75
2023/11/19 01:18:48;;;;;;;7.20;3.95;;;1.10;99.90;;;;;;5068543;28;20368;-75
2023/11/19 01:21:14;;;;;;;;;;;1.20;99.90;;;;;;5084611;28;20389;-76
2023/11/19 01:23:42;;;;;;;14.80;6.68;;;1.30;99.90;;;;;;5090063;28;19908;-75
2023/11/19 01:26:10;;;;;;;12.32;7.60;;;1.30;99.90;;;;;;5088617;28;20158;-75
2023/11/19 01:28:44;;;;;;;12.57;6.93;;;1.20;99.90;;;;;;5088525;28;20061;-75
2023/11/19 01:31:15;;;;;;;14.15;7.18;;;1.10;99.90;;;;;;5088402;28;20153;-75
2023/11/19 01:33:41;;;;;;;15.45;8.20;;;1.10;99.90;;;;;;5089794;28;20389;-77
2023/11/19 01:36:07;;;;;;;16.25;8.27;;;1.10;99.90;;;;;;5089588;28;20125;-75
2023/11/19 01:38:36;;;;;;;11.38;5.82;;;1.10;99.90;;;;;;5088635;28;20034;-75
2023/11/19 01:41:03;;;;;;;15.57;7.22;;;1.20;99.90;;;;;;5082328;28;20024;-76
2023/11/19 01:43:36;;;;;;;18.08;9.48;;;1.20;99.90;;;;;;5088549;28;20085;-75
2023/11/19 01:46:06;;;;;;;19.83;9.57;;;1.20;99.90;;;;;;5090153;28;20542;-75
2023/11/19 01:48:33;;;;;;;19.30;8.77;;;1.10;99.90;;;;;;5089813;28;20075;-75
2023/11/19 01:51:01;;;;;;;17.25;7.70;;;1.20;99.90;;;;;;5088603;28;20023;-75
2023/11/19 01:53:27;;;;;;;11.80;6.13;;;1.20;99.90;;;;;;5089765;28;20131;-75
2023/11/19 01:55:53;;;;;;;;;;;1.20;99.90;;;;;;5088625;28;20504;-76
2023/11/19 01:58:19;;;;;;;9.35;5.43;;;1.20;99.90;;;;;;5088641;28;19908;-75
2023/11/19 02:00:45;;;;;;;;;;;1.10;99.90;;;;;;5090353;28;20488;-75
2023/11/19 02:03:11;;;;;;;9.23;4.57;;;1.00;99.90;;;;;;5089743;28;20498;-74
2023/11/19 02:05:38;;;;;;;9.23;5.32;;;1.00;99.90;;;;;;5088199;28;20134;-75
2023/11/19 02:08:04;;;;;;;10.07;5.45;;;1.10;99.90;;;;;;5088400;28;20443;-75
2023/11/19 02:10:31;;;;;;;;;;;1.00;99.90;;;;;;5088543;28;20089;-75
2023/11/19 02:12:57;;;;;;;;;;;0.90;99.90;;;;;;5088302;28;19908;-75
2023/11/19 02:15:24;;;;;;;9.30;5.03;;;0.90;99.90;;;;;;5088465;28;20330;-75
2023/11/19 02:17:50;;;;;;;10.27;5.57;;;0.90;99.90;;;;;;5088172;28;20051;-75
2023/11/19 02:20:17;;;;;;;13.23;5.88;;;1.00;99.90;;;;;;5089591;28;20599;-75
2023/11/19 02:22:44;;;;;;;13.38;6.45;;;1.00;99.90;;;;;;5084891;28;20504;-75
2023/11/19 02:25:32;;;;;;;13.10;7.55;;;1.00;99.90;;;;;;5086098;28;20750;-77
2023/11/19 02:28:01;;;;;;;15.75;7.40;;;0.90;99.90;;;;;;5090926;28;20016;-76
2023/11/19 02:30:28;;;;;;;14.02;7.18;;;0.90;99.90;;;;;;5089425;28;20047;-75
2023/11/19 02:32:58;;;;;;;15.15;7.20;;;0.80;99.90;;;;;;5088034;28;20032;-75
2023/11/19 02:35:25;;;;;;;13.57;7.28;;;0.90;99.90;;;;;;5089240;28;20581;-75
2023/11/19 02:37:51;;;;;;;12.80;6.30;;;0.90;99.90;;;;;;5084584;28;20508;-75
2023/11/19 02:40:17;;;;;;;;;;;0.90;99.90;;;;;;5089700;28;20032;-75
2023/11/19 02:42:43;;;;;;;10.85;5.75;;;0.90;99.90;;;;;;5087771;28;19962;-75
2023/11/19 02:45:13;;;;;;;;;;;0.90;99.90;;;;;;5091362;28;20476;-75
2023/11/19 02:47:42;;;;;;;12.65;6.15;;;0.90;99.90;;;;;;5091448;28;19908;-74
2023/11/19 02:50:14;;;;;;;12.88;6.75;;;0.90;99.90;;;;;;5091548;28;20496;-75
2023/11/19 02:52:46;;;;;;;12.82;6.22;;;1.00;99.90;;;;;;5090100;28;20429;-75
2023/11/19 02:55:12;;;;;;;10.00;6.38;;;0.90;99.90;;;;;;5079400;28;20051;-75
2023/11/19 02:57:46;;;;;;;12.05;6.28;;;1.00;99.90;;;;;;5092586;28;20040;-75
2023/11/19 03:00:24;;;;;;;11.73;6.00;;;0.90;99.90;;;;;;5091207;28;20024;-75
2023/11/19 03:02:59;;;;;;;12.98;6.07;;;0.90;99.90;;;;;;5092332;28;20115;-75
2023/11/19 03:05:25;;;;;;;12.32;6.38;;;1.00;99.90;;;;;;5080353;28;20035;-75
2023/11/19 03:07:51;;;;;;;14.80;7.63;;;0.90;99.90;;;;;;5080813;28;20442;-75
2023/11/19 03:10:17;;;;;;;12.13;6.30;;;0.90;99.90;;;;;;5089873;28;20036;-76
2023/11/19 03:12:43;;;;;;;;;;;0.90;99.90;;;;;;5092520;28;20111;-75
2023/11/19 03:15:09;;;;;;;11.98;6.50;;;0.90;99.90;;;;;;5092574;28;20394;-75
2023/11/19 03:17:45;;;;;;;14.27;6.53;;;0.80;99.90;;;;;;5091560;28;20077;-75
2023/11/19 03:20:16;;;;;;;15.50;6.67;;;0.80;99.90;;;;;;5089378;28;20024;-75
2023/11/19 03:22:43;;;;;;;15.85;6.50;;;0.90;99.90;;;;;;5070408;28;20035;-75
2023/11/19 03:25:09;;;;;;;12.10;5.78;;;0.90;99.90;;;;;;5076871;28;20488;-74
2023/11/19 03:27:44;;;;;;;8.90;5.32;;;0.90;99.90;;;;;;5073532;28;20033;-75
2023/11/19 03:30:10;;;;;;;10.10;4.90;;;0.90;99.90;;;;;;5070657;28;20028;-77
2023/11/19 03:32:36;;;;;;;11.27;5.60;;;0.90;99.90;;;;;;5070234;28;20036;-75
2023/11/19 03:35:04;;;;;;;;;;;0.90;99.90;;;;;;5071237;28;20413;-75
2023/11/19 03:37:30;;;;;;;12.00;5.85;;;0.90;99.90;;;;;;5070237;28;19920;-75
2023/11/19 03:39:59;;;;;;;;;;;0.90;99.90;;;;;;5072291;28;20025;-76
2023/11/19 03:42:25;;;;;;;15.50;8.18;;;0.90;99.90;;;;;;5071582;28;19957;-75
2023/11/19 03:44:52;;;;;;;16.17;7.38;;;0.90;99.90;;;;;;5071475;28;20035;-75
2023/11/19 03:47:18;;;;;;;11.68;6.30;;;0.90;99.90;;;;;;5071720;28;20036;-75
2023/11/19 03:49:47;;;;;;;;;;;0.80;99.90;;;;;;5073434;28;20035;-75
2023/11/19 03:52:14;;;;;;;10.57;5.47;;;0.80;99.90;;;;;;5077396;28;19914;-75
2023/11/19 03:54:39;;;;;;;;;;;0.80;99.90;;;;;;5071700;28;20028;-75
2023/11/19 03:57:05;;;;;;;9.30;5.00;;;0.80;99.90;;;;;;5071065;28;19959;-74
2023/11/19 03:59:30;;;;;;;;;;;0.90;99.90;;;;;;5070282;28;20078;-74
2023/11/19 04:02:00;;;;;;;7.88;5.07;;;0.80;99.90;;;;;;5071132;28;20054;-75
2023/11/19 04:04:27;;;;;;;10.80;5.53;;;0.90;99.90;;;;;;5071090;28;20032;-75
2023/11/19 04:06:53;;;;;;;9.38;5.47;;;0.90;99.90;;;;;;5069410;28;20029;-74
2023/11/19 04:09:18;;;;;;;9.77;5.50;;;0.90;99.90;;;;;;5070539;28;20060;-75
2023/11/19 04:11:46;;;;;;;;;;;1.00;99.90;;;;;;5087934;28;20105;-75
2023/11/19 04:14:13;;;;;;;12.57;6.68;;;1.20;99.90;;;;;;5090996;28;19912;-74
2023/11/19 04:16:39;;;;;;;9.95;6.20;;;1.10;99.90;;;;;;5089465;28;20089;-73
2023/11/19 04:19:04;;;;;;;;;;;1.10;99.90;;;;;;5086993;28;20056;-75
2023/11/19 04:21:30;;;;;;;10.85;6.10;;;1.00;99.90;;;;;;5078323;28;19911;-74
2023/11/19 04:23:56;;;;;;;;;;;1.00;99.90;;;;;;5070933;28;20392;-74
2023/11/19 04:26:21;;;;;;;17.90;6.85;;;0.90;99.90;;;;;;5070724;28;19909;-74
2023/11/19 04:28:49;;;;;;;;;;;0.90;99.90;;;;;;5070877;28;20071;-74
2023/11/19 04:31:16;;;;;;;;;;;1.00;99.90;;;;;;5071215;28;19948;-75
2023/11/19 04:33:42;;;;;;;10.52;5.50;;;1.00;99.90;;;;;;5071524;28;19904;-75
2023/11/19 04:36:07;;;;;;;;;;;1.00;99.90;;;;;;5070426;28;20677;-74
2023/11/19 04:38:33;;;;;;;12.10;4.65;;;1.10;99.90;;;;;;5068754;28;19912;-74
2023/11/19 04:40:58;;;;;;;;;;;1.10;99.90;;;;;;5070815;28;20483;-75
2023/11/19 04:43:24;;;;;;;12.32;6.00;;;1.20;99.90;;;;;;5085930;28;19904;-74
2023/11/19 04:45:49;;;;;;;;;;;1.30;99.90;;;;;;5069398;28;20020;-75
2023/11/19 04:48:15;;;;;;;14.90;9.30;;;1.40;99.90;;;;;;5069077;28;19908;-75
2023/11/19 04:50:41;;;;;;;;;;;1.50;99.90;;;;;;5070360;28;20034;-75
2023/11/19 04:53:06;;;;;;;20.73;14.48;;;1.50;99.90;;;;;;5069793;28;19905;-75
2023/11/19 04:55:32;;;;;;;;;;;1.50;99.90;;;;;;5070477;28;20033;-75
2023/11/19 04:57:58;;;;;;;19.08;10.38;;;1.40;99.90;;;;;;5069868;28;19952;-74
2023/11/19 05:00:23;;;;;;;;;;;1.40;99.90;;;;;;5070122;28;20044;-74
2023/11/19 05:02:49;;;;;;;18.65;9.98;;;1.40;99.90;;;;;;5069780;28;19911;-75
2023/11/19 05:05:15;;;;;;;;;;;1.40;99.90;;;;;;5070390;28;20035;-75
2023/11/19 05:07:41;;;;;;;11.60;7.85;;;1.50;99.90;;;;;;5077442;28;20304;-75
2023/11/19 05:10:07;;;;;;;;;;;1.50;99.90;;;;;;5089219;28;20020;-75
2023/11/19 05:12:32;;;;;;;15.57;8.73;;;1.50;99.90;;;;;;5089951;28;19912;-73
2023/11/19 05:14:58;;;;;;;;;;;1.60;99.90;;;;;;5089289;28;20024;-75
2023/11/19 05:17:23;;;;;;;18.13;10.55;;;1.60;99.90;;;;;;5089920;28;19919;-74
2023/11/19 05:19:49;;;;;;;;;;;1.60;99.90;;;;;;5090271;28;20504;-75
2023/11/19 05:22:15;;;;;;;14.10;8.57;;;1.60;99.90;;;;;;5088643;28;20261;-75
2023/11/19 05:24:40;;;;;;;;;;;1.70;99.90;;;;;;5087196;28;20140;-75
2023/11/19 05:27:07;;;;;;;19.67;9.77;;;1.70;99.90;;;;;;5089614;28;19950;-75
2023/11/19 05:29:33;;;;;;;20.92;12.13;;;1.70;99.90;;;;;;5088543;28;20521;-75
2023/11/19 05:31:59;;;;;;;;;;;1.80;99.90;;;;;;5088910;28;20127;-75
2023/11/19 05:34:25;;;;;;;20.85;9.57;;;1.80;99.90;;;;;;5083087;28;20330;-75
2023/11/19 05:36:50;;;;;;;;;;;1.90;99.90;;;;;;5069671;28;20118;-74
2023/11/19 05:39:18;;;;;;;19.20;8.57;;;1.80;99.90;;;;;;5075528;28;20308;-75
2023/11/19 05:41:44;;;;;;;14.25;7.53;;;1.80;99.90;;;;;;5079165;28;20021;-75
2023/11/19 05:44:09;;;;;;;;;;;1.80;99.90;;;;;;5070389;28;20021;-75
2023/11/19 05:46:40;;;;;;;9.23;5.60;;;1.90;99.90;;;;;;5088219;28;19908;-74
2023/11/19 05:49:05;;;;;;;11.35;6.15;;;1.90;99.90;;;;;;5088144;28;20407;-74
2023/11/19 05:51:31;;;;;;;;;;;1.90;99.90;;;;;;5083503;28;20017;-75
2023/11/19 05:53:57;;;;;;;14.93;7.70;;;1.90;99.90;;;;;;5077715;28;19916;-75
2023/11/19 05:56:23;;;;;;;;;;;1.90;99.90;;;;;;5084964;28;20443;-75
2023/11/19 05:58:49;;;;;;;29.95;13.50;;;1.90;99.90;;;;;;5082701;28;20297;-75
2023/11/19 06:01:15;;;;;;;36.05;15.98;;;1.80;99.90;;;;;;5068321;28;20571;-75
2023/11/19 06:03:40;;;;;;;;;;;1.90;99.90;;;;;;5068363;28;20036;-75
2023/11/19 06:06:06;;;;;;;28.05;13.00;;;1.90;99.90;;;;;;5068068;28;19912;-75
2023/11/19 06:08:32;;;;;;;;;;;2.00;99.90;;;;;;5070085;28;20103;-74
2023/11/19 06:10:58;;;;;;;21.38;10.52;;;2.00;99.90;;;;;;5072463;28;20361;-75
2023/11/19 06:13:25;;;;;;;;;;;2.00;99.90;;;;;;5076727;28;20489;-75
2023/11/19 06:15:51;;;;;;;18.55;9.40;;;2.00;99.90;;;;;;5071339;28;19915;-75
2023/11/19 06:18:16;;;;;;;;;;;2.10;99.90;;;;;;5089890;28;20412;-75
2023/11/19 06:20:43;;;;;;;16.38;8.27;;;2.10;99.90;;;;;;5093258;28;19908;-74
2023/11/19 06:23:09;;;;;;;;;;;2.00;99.90;;;;;;5093585;28;20522;-72
2023/11/19 06:25:35;;;;;;;16.58;9.00;;;2.00;99.90;;;;;;5091906;28;20304;-75
2023/11/19 06:28:00;;;;;;;;;;;2.00;99.90;;;;;;5092319;28;20026;-75
2023/11/19 06:30:28;;;;;;;12.13;7.47;;;2.10;99.90;;;;;;5091679;28;19912;-74
2023/11/19 06:32:54;;;;;;;18.30;10.98;;;2.10;99.90;;;;;;5091823;28;20078;-74
2023/11/19 06:35:19;;;;;;;;;;;2.10;99.90;;;;;;5093482;28;20024;-75
2023/11/19 06:37:45;;;;;;;34.03;16.92;;;2.10;99.90;;;;;;5092200;28;20026;-74
2023/11/19 06:40:12;;;;;;;;;;;2.10;99.90;;;;;;5089023;28;20493;-75
2023/11/19 06:42:38;;;;;;;20.63;12.32;;;2.20;99.90;;;;;;5073738;28;19991;-74
2023/11/19 06:45:04;;;;;;;25.63;14.80;;;2.20;99.90;;;;;;5072824;28;20032;-74
2023/11/19 06:47:30;;;;;;;;;;;2.20;99.90;;;;;;5072561;28;20046;-74
2023/11/19 06:49:56;;;;;;;26.52;13.60;;;2.30;99.90;;;;;;5071260;28;19905;-74
2023/11/19 06:52:21;;;;;;;;;;;2.20;99.90;;;;;;5072837;28;20068;-75
2023/11/19 06:54:47;;;;;;;31.75;16.17;;;2.30;99.90;;;;;;5072833;28;19905;-74
2023/11/19 06:57:13;;;;;;;22.88;12.55;;;2.40;99.90;;;;;;5072299;28;20626;-74
2023/11/19 06:59:39;;;;;;;;;;;2.40;99.90;;;;;;5091884;28;20118;-74
2023/11/19 07:02:05;;;;;;;18.02;9.45;;;2.40;99.90;;;;;;5091446;28;19908;-74
2023/11/19 07:04:31;;;;;;;20.00;10.57;;;2.40;99.90;;;;;;5091154;28;20024;-75
2023/11/19 07:06:57;;;;;;;18.95;10.27;;;2.40;99.90;;;;;;5092267;28;20043;-75
2023/11/19 07:09:23;;;;;;;;;;;2.50;99.90;;;;;;5092887;28;20024;-75
2023/11/19 07:11:51;;;;;;;20.17;9.93;;;2.60;99.90;;;;;;5092314;28;19957;-74
2023/11/19 07:14:18;;;;;;;22.67;12.05;;;2.60;99.90;;;;;;5090923;28;20108;-76
2023/11/19 07:16:44;;;;;;;17.55;10.40;;;2.60;99.90;;;;;;5092203;28;20032;-75
2023/11/19 07:19:10;;;;;;;17.38;10.73;;;2.70;99.90;;;;;;5090621;28;20028;-74
2023/11/19 07:21:39;;;;;;;;;;;2.80;99.90;;;;;;5092620;28;20502;-75
2023/11/19 07:24:05;;;;;;;18.15;9.73;;;2.80;99.90;;;;;;5092056;28;19958;-74
2023/11/19 07:26:31;;;;;;;19.08;11.13;;;2.90;99.90;;;;;;5091550;28;20028;-74
2023/11/19 07:28:56;;;;;;;;;;;2.90;99.90;;;;;;5092653;28;20043;-75
2023/11/19 07:31:23;;;;;;;17.90;9.85;;;2.90;99.90;;;;;;5091816;28;19908;-74
2023/11/19 07:33:49;;;;;;;14.63;8.02;;;3.00;99.90;;;;;;5090421;28;20465;-74
2023/11/19 07:36:15;;;;;;;;;;;3.10;99.90;;;;;;5092292;28;20131;-75
2023/11/19 07:38:40;;;;;;;14.10;8.73;;;3.10;99.90;;;;;;5091723;28;19919;-74
2023/11/19 07:41:06;;;;;;;;;;;3.20;99.90;;;;;;5090793;28;20124;-76
2023/11/19 07:43:33;;;;;;;12.80;7.40;;;3.30;99.90;;;;;;5090599;28;19911;-75
2023/11/19 07:45:59;;;;;;;11.18;7.20;;;3.30;99.90;;;;;;5090393;28;20796;-74
2023/11/19 07:48:25;;;;;;;;;;;3.30;99.90;;;;;;5092019;28;20024;-74
2023/11/19 07:50:51;;;;;;;9.77;6.15;;;3.40;99.90;;;;;;5081409;28;19916;-74
2023/11/19 07:53:17;;;;;;;14.45;7.57;;;3.50;99.90;;;;;;5071085;28;20525;-75
2023/11/19 07:55:43;;;;;;;;;;;3.50;99.90;;;;;;5071588;28;20145;-75
2023/11/19 07:58:10;;;;;;;13.07;8.07;;;3.60;99.90;;;;;;5071486;28;19912;-74
2023/11/19 08:00:35;;;;;;;14.20;8.73;;;3.60;99.90;;;;;;5070630;28;20270;-73
2023/11/19 08:03:01;;;;;;;;;;;3.70;99.90;;;;;;5069824;28;20726;-74
2023/11/19 08:05:27;;;;;;;12.27;7.30;;;3.80;99.90;;;;;;5086846;28;20003;-75
2023/11/19 08:07:53;;;;;;;;;;;3.70;99.90;;;;;;5070012;28;20021;-75
2023/11/19 08:10:19;;;;;;;13.18;7.97;;;3.70;99.90;;;;;;5086406;28;19904;-74
2023/11/19 08:12:45;;;;;;;12.75;8.35;;;3.70;99.90;;;;;;5086485;28;20036;-74
2023/11/19 08:15:10;;;;;;;;;;;3.60;99.90;;;;;;5090293;28;20096;-74
2023/11/19 08:17:36;;;;;;;12.40;7.32;;;3.60;99.90;;;;;;5096457;28;20453;-76
2023/11/19 08:20:04;;;;;;;12.00;7.45;;;3.60;99.90;;;;;;5091204;28;20031;-75
2023/11/19 08:22:30;;;;;;;13.88;7.93;;;3.70;99.90;;;;;;5089524;28;20526;-75
2023/11/19 08:24:56;;;;;;;;;;;3.70;99.90;;;;;;5091477;28;20036;-75
2023/11/19 08:27:26;;;;;;;13.75;8.07;;;3.70;99.90;;;;;;5091312;28;19918;-74
2023/11/19 08:29:56;;;;;;;15.18;9.30;;;3.80;99.90;;;;;;5089720;28;20533;-75
2023/11/19 08:32:26;;;;;;;12.60;8.13;;;3.80;99.90;;;;;;5085367;28;20036;-75
2023/11/19 08:34:52;;;;;;;13.30;8.00;;;3.90;99.90;;;;;;5077302;28;20037;-75
2023/11/19 08:37:21;;;;;;;;;;;3.80;99.90;;;;;;5072361;28;20052;-74
2023/11/19 08:39:48;;;;;;;17.70;9.93;;;3.90;99.90;;;;;;5071082;28;19911;-75
2023/11/19 08:42:13;;;;;;;17.20;11.07;;;3.90;99.90;;;;;;5069628;28;20397;-74
2023/11/19 08:44:40;;;;;;;;;;;3.90;99.90;;;;;;5073670;28;20497;-75
2023/11/19 08:47:06;;;;;;;14.10;9.10;;;4.00;99.90;;;;;;5073419;28;19954;-75
2023/11/19 08:49:31;;;;;;;;;;;4.00;99.90;;;;;;5077787;28;20302;-74
2023/11/19 08:51:57;;;;;;;86.28;47.47;;;3.90;99.90;;;;;;5085731;28;19915;-75
2023/11/19 08:54:22;;;;;;;;;;;4.00;99.90;;;;;;5070449;28;20020;-75
2023/11/19 08:56:48;;;;;;;23.58;13.93;;;4.10;99.90;;;;;;5070145;28;19931;-77
2023/11/19 08:59:15;;;;;;;;;;;4.10;99.90;;;;;;5070372;28;20067;-75
2023/11/19 09:01:41;;;;;;;19.60;11.97;;;4.20;99.90;;;;;;5070024;28;19904;-75
2023/11/19 09:04:06;;;;;;;;;;;4.20;99.90;;;;;;5083107;28;20281;-75
2023/11/19 09:06:32;;;;;;;16.95;11.25;;;4.20;99.90;;;;;;5072590;28;20393;-75
2023/11/19 09:09:01;;;;;;;;;;;4.40;99.90;;;;;;5071805;28;20032;-75
2023/11/19 09:11:28;;;;;;;14.30;9.35;;;4.20;99.90;;;;;;5088708;28;19995;-75
2023/11/19 09:13:53;;;;;;;20.48;12.85;;;4.10;99.90;;;;;;5090110;28;20028;-73
2023/11/19 09:16:19;;;;;;;;;;;4.20;99.90;;;;;;5089067;28;20046;-74
2023/11/19 09:18:44;;;;;;;31.98;17.92;;;4.30;99.90;;;;;;5089679;28;19942;-75
2023/11/19 09:21:10;;;;;;;;;;;4.30;99.90;;;;;;5088929;28;20024;-74
2023/11/19 09:23:39;;;;;;;18.88;11.75;;;4.20;99.90;;;;;;5088510;28;19908;-75
2023/11/19 09:26:10;;;;;;;15.82;9.93;;;4.30;99.90;;;;;;5089744;28;20081;-74
2023/11/19 09:28:35;;;;;;;16.60;10.40;;;4.30;99.90;;;;;;5089603;28;20020;-74
2023/11/19 09:31:04;;;;;;;;;;;4.30;99.90;;;;;;5090439;28;20645;-74
2023/11/19 09:33:30;;;;;;;15.05;9.35;;;4.40;99.90;;;;;;5088603;28;20399;-74
2023/11/19 09:35:55;;;;;;;;;;;4.40;99.90;;;;;;5090428;28;20056;-74
2023/11/19 09:38:21;;;;;;;16.77;10.00;;;4.30;99.90;;;;;;5090088;28;20273;-75
2023/11/19 09:40:47;;;;;;;;;;;4.20;99.90;;;;;;5089691;28;20500;-75
2023/11/19 09:43:15;;;;;;;21.30;11.45;;;4.10;99.90;;;;;;5090311;28;19911;-75
2023/11/19 09:45:51;;;;;;;24.02;12.68;;;4.00;99.90;;;;;;5089170;28;20730;-75
2023/11/19 09:48:18;;;;;;;23.67;11.95;;;4.10;99.90;;;;;;5090832;28;20046;-75
2023/11/19 09:50:48;;;;;;;18.55;9.85;;;4.10;99.90;;;;;;5090690;28;20036;-75
2023/11/19 09:53:15;;;;;;;15.07;8.38;;;4.00;99.90;;;;;;5092356;28;20028;-75
2023/11/19 09:55:41;;;;;;;26.92;9.65;;;4.20;99.90;;;;;;5093544;28;20039;-74
2023/11/19 09:58:07;;;;;;;16.65;10.07;;;4.20;99.90;;;;;;5094889;28;20089;-75
2023/11/19 10:00:33;;;;;;;;;;;4.40;99.90;;;;;;5094752;28;20165;-74
2023/11/19 10:03:00;;;;;;;12.73;8.05;;;4.50;99.90;;;;;;5093486;28;20686;-75
2023/11/19 10:05:26;;;;;;;16.45;9.40;;;4.50;99.90;;;;;;5093711;28;20119;-74
2023/11/19 10:07:52;;;;;;;13.52;8.35;;;4.50;99.90;;;;;;5093644;28;20378;-75
2023/11/19 10:10:19;;;;;;;14.80;9.00;;;4.60;99.90;;;;;;5093993;28;20028;-74
2023/11/19 10:12:50;;;;;;;14.95;9.20;;;4.70;99.90;;;;;;5093637;28;20020;-74
2023/11/19 10:15:24;;;;;;;17.05;10.57;;;4.60;99.90;;;;;;5092958;28;20395;-75
2023/11/19 10:17:50;;;;;;;15.63;10.05;;;4.60;99.90;;;;;;5092374;28;20046;-75
2023/11/19 10:20:16;;;;;;;16.85;11.10;;;4.60;99.90;;;;;;5093379;28;20039;-75
2023/11/19 10:22:42;;;;;;;;;;;4.60;99.90;;;;;;5082969;28;20040;-75
2023/11/19 10:25:25;;;;;;;15.90;10.60;;;4.60;99.90;;;;;;5088430;28;19912;-75
2023/11/19 10:27:51;;;;;;;17.55;10.30;;;4.60;99.90;;;;;;5090197;28;20154;-75
2023/11/19 10:30:21;;;;;;;15.05;8.90;;;4.60;99.90;;;;;;5099667;28;20081;-74
2023/11/19 10:33:03;;;;;;;14.55;9.18;;;4.60;99.90;;;;;;5113430;28;20038;-74
2023/11/19 10:35:29;;;;;;;17.17;9.80;;;4.70;99.90;;;;;;5097735;28;20027;-76
2023/11/19 10:37:55;;;;;;;;;;;4.60;99.90;;;;;;5072881;28;20059;-75
2023/11/19 10:40:21;;;;;;;23.58;13.65;;;4.70;99.90;;;;;;5086687;28;20395;-75
2023/11/19 10:42:46;;;;;;;;;;;4.60;99.90;;;;;;5103370;28;20070;-75
2023/11/19 10:45:33;;;;;;;18.10;12.07;;;4.60;99.90;;;;;;5102532;28;20299;-75
2023/11/19 10:47:59;;;;;;;;;;;4.70;99.90;;;;;;5114963;28;20023;-75
2023/11/19 10:50:26;;;;;;;16.00;9.82;;;4.60;99.90;;;;;;5112638;28;19911;-74
2023/11/19 10:53:00;;;;;;;16.80;9.85;;;4.60;99.90;;;;;;5116763;28;20027;-75
2023/11/19 10:55:35;;;;;;;15.88;10.00;;;4.60;99.90;;;;;;5115557;28;20077;-75
2023/11/19 10:58:05;;;;;;;17.33;9.50;;;4.50;99.90;;;;;;5112263;28;20039;-75
2023/11/19 11:00:43;;;;;;;13.20;9.18;;;4.50;99.90;;;;;;5113627;28;20093;-74
2023/11/19 11:03:22;;;;;;;16.17;9.20;;;4.40;99.90;;;;;;5111957;28;20863;-75
2023/11/19 11:05:53;;;;;;;17.27;11.00;;;4.40;99.90;;;;;;5111024;28;20110;-74
2023/11/19 11:08:20;;;;;;;19.38;11.90;;;4.30;99.90;;;;;;5111833;28;20020;-74
2023/11/19 11:10:54;;;;;;;15.38;9.52;;;4.40;99.90;;;;;;5112654;28;20038;-74
2023/11/19 11:13:21;;;;;;;14.68;9.57;;;4.40;99.90;;;;;;5111767;28;20027;-75
2023/11/19 11:15:49;;;;;;;16.75;11.25;;;4.40;99.90;;;;;;5112988;28;20027;-75
2023/11/19 11:18:14;;;;;;;22.38;14.57;;;4.40;99.90;;;;;;5112827;28;20108;-75
2023/11/19 11:20:40;;;;;;;;;;;4.50;99.90;;;;;;5113520;28;20479;-75
2023/11/19 11:23:38;;;;;;;17.17;11.60;;;4.50;99.90;;;;;;5112801;28;19904;-76
2023/11/19 11:26:44;;;;;;;17.92;11.23;;;4.60;99.90;;;;;;5112969;28;20024;-75
2023/11/19 11:29:24;;;;;;;24.05;15.32;;;4.50;99.90;;;;;;5111331;28;20023;-73
2023/11/19 11:32:17;;;;;;;25.38;17.50;;;4.60;99.90;;;;;;5111821;28;20088;-75
2023/11/19 11:35:04;;;;;;;16.80;11.32;;;4.60;99.90;;;;;;5111055;28;20035;-74
2023/11/19 11:37:48;;;;;;;25.00;13.52;;;4.70;99.90;;;;;;5110785;28;20059;-74
2023/11/19 11:40:18;;;;;;;22.45;11.32;;;4.60;99.90;;;;;;5112427;28;20633;-74
2023/11/19 11:42:47;;;;;;;24.85;15.05;;;4.50;99.90;;;;;;5103190;28;20059;-74
2023/11/19 11:45:14;;;;;;;32.10;19.80;;;4.60;99.90;;;;;;5078905;28;20032;-75
2023/11/19 11:47:42;;;;;;;27.92;16.30;;;4.50;99.90;;;;;;5090901;28;20497;-75
2023/11/19 11:50:13;;;;;;;23.25;14.40;;;4.40;99.90;;;;;;5092027;28;20028;-75
2023/11/19 11:52:57;;;;;;;27.38;18.83;;;4.40;99.90;;;;;;5090428;28;20082;-75
2023/11/19 11:55:36;;;;;;;32.40;20.73;;;4.40;99.90;;;;;;5082529;28;20435;-75
2023/11/19 11:58:04;;;;;;;27.30;17.08;;;4.40;99.90;;;;;;5070220;28;20047;-75
2023/11/19 12:00:29;;;;;;;37.28;23.55;;;4.50;99.90;;;;;;5073185;28;21278;-74
2023/11/19 12:03:01;;;;;;;;;;;4.40;99.90;;;;;;5090616;28;20036;-75
2023/11/19 12:05:28;;;;;;;29.77;20.48;;;4.50;99.90;;;;;;5090308;28;20041;-75
2023/11/19 12:08:07;;;;;;;36.65;24.55;;;4.30;99.90;;;;;;5091576;28;20020;-75
2023/11/19 12:10:57;;;;;;;27.88;19.88;;;4.30;99.90;;;;;;5090405;28;20032;-74
2023/11/19 12:13:24;;;;;;;24.02;15.23;;;4.20;99.90;;;;;;5091461;28;20174;-75
2023/11/19 12:15:56;;;;;;;32.88;20.38;;;4.10;99.90;;;;;;5090859;28;20031;-76
2023/11/19 12:18:30;;;;;;;21.27;14.45;;;4.20;99.90;;;;;;5091126;28;20457;-75
2023/11/19 12:20:57;;;;;;;17.25;11.05;;;4.20;99.90;;;;;;5089984;28;20520;-76
2023/11/19 12:23:29;;;;;;;22.95;13.93;;;4.30;99.90;;;;;;5090156;28;20158;-76
2023/11/19 12:25:55;;;;;;;24.58;14.15;;;4.10;99.90;;;;;;5091509;28;20024;-74
2023/11/19 12:28:20;;;;;;;;;;;4.10;99.90;;;;;;5092083;28;20039;-74
2023/11/19 12:30:49;;;;;;;28.77;17.30;;;4.20;99.90;;;;;;5091030;28;19908;-74
2023/11/19 12:33:16;;;;;;;49.65;28.77;;;4.10;99.90;;;;;;5091505;28;20035;-73
2023/11/19 12:35:43;;;;;;;24.60;16.27;;;3.80;99.90;;;;;;5092554;28;20048;-73
2023/11/19 12:38:27;;;;;;;23.52;15.88;;;3.90;99.90;;;;;;5090311;28;20032;-75
2023/11/19 12:41:11;;;;;;;28.77;18.63;;;4.00;99.90;;;;;;5086126;28;20577;-74
2023/11/19 12:43:37;;;;;;;24.17;15.00;;;3.90;99.90;;;;;;5080435;28;20059;-75
2023/11/19 12:46:24;;;;;;;26.45;18.00;;;3.80;99.90;;;;;;5080804;28;20027;-75
2023/11/19 12:48:50;;;;;;;;;;;3.80;99.90;;;;;;5082040;28;20040;-75
2023/11/19 12:51:17;;;;;;;30.75;17.90;;;3.70;99.90;;;;;;5079507;28;19920;-75
2023/11/19 12:53:52;;;;;;;26.77;17.65;;;3.80;99.90;;;;;;5079458;28;20508;-75
2023/11/19 12:56:18;;;;;;;48.50;29.92;;;3.70;99.90;;;;;;5079668;28;20087;-75
2023/11/19 12:58:43;;;;;;;;;;;3.70;99.90;;;;;;5083780;28;20103;-75
2023/11/19 13:01:12;;;;;;;30.27;18.05;;;3.80;99.90;;;;;;5081574;28;20406;-75
2023/11/19 13:03:38;;;;;;;22.35;14.50;;;3.90;99.90;;;;;;5081798;28;20044;-75
2023/11/19 13:06:07;;;;;;;24.05;13.70;;;3.90;99.90;;;;;;5082712;28;20051;-74
2023/11/19 13:08:48;;;;;;;25.20;15.93;;;3.90;99.90;;;;;;5083796;28;20038;-76
2023/11/19 13:11:14;;;;;;;22.80;14.23;;;3.80;99.90;;;;;;5081931;28;20027;-75
2023/11/19 13:13:56;;;;;;;;;;;4.00;99.90;;;;;;5079543;28;20008;-75